Time;durP1;ratioP1;P1;durP2;ratioP2;P2;SDS_P1;SDS_P2;PMS_P1;PMS_P2;Temp;Humidity;BMP_temperature;BMP_pressure;BME280_temperature;BME280_humidity;BME280_pressure;Samples;Min_cycle;Max_cycle;Signal;HPM_P1;HPM_P2
2022/11/28 00:02:19;;;;;;;28.17;26.05;;;3.40;99.90;;;;;;4981819;28;20022;-74
2022/11/28 00:04:44;;;;;;;0.20;0.20;;;3.40;99.90;;;;;;4982541;28;20038;-75
2022/11/28 00:07:14;;;;;;;2.70;2.60;;;3.40;99.90;;;;;;4987158;28;20331;-75
2022/11/28 00:09:40;;;;;;;0.68;0.68;;;3.40;99.90;;;;;;4983066;28;20036;-75
2022/11/28 00:12:05;;;;;;;0.30;0.30;;;3.40;99.90;;;;;;4982457;28;20023;-75
2022/11/28 00:14:32;;;;;;;2.10;2.05;;;3.40;99.90;;;;;;4981726;28;20421;-75
2022/11/28 00:16:58;;;;;;;10.10;9.68;;;3.30;99.90;;;;;;4981572;28;20026;-75
2022/11/28 00:19:24;;;;;;;0.20;0.20;;;3.30;99.90;;;;;;4982072;28;20441;-75
2022/11/28 00:21:50;;;;;;;2.67;2.60;;;3.40;99.90;;;;;;4964138;28;20421;-75
2022/11/28 00:24:15;;;;;;;7.75;7.32;;;3.40;99.90;;;;;;4983567;28;20432;-75
2022/11/28 00:26:41;;;;;;;0.55;0.55;;;3.40;99.90;;;;;;4984735;28;20271;-75
2022/11/28 00:29:09;;;;;;;1.33;1.33;;;3.40;99.90;;;;;;4984004;28;20030;-75
2022/11/28 00:31:41;;;;;;;0.00;0.00;;;3.30;99.90;;;;;;4985710;28;20030;-75
2022/11/28 00:34:13;;;;;;;0.10;0.10;;;3.60;99.90;;;;;;4987262;28;20402;-75
2022/11/28 00:36:39;;;;;;;1.52;1.50;;;3.50;99.90;;;;;;4988254;28;20031;-75
2022/11/28 00:39:05;;;;;;;5.03;4.75;;;3.40;99.90;;;;;;4990123;28;20030;-75
2022/11/28 00:41:34;;;;;;;4.43;4.13;;;3.60;99.90;;;;;;4988239;28;20030;-75
2022/11/28 00:44:00;;;;;;;0.25;0.25;;;3.70;99.90;;;;;;4993569;28;20552;-75
2022/11/28 00:46:27;;;;;;;9.95;9.55;;;3.70;99.90;;;;;;4987423;28;20027;-76
2022/11/28 00:48:52;;;;;;;0.15;0.15;;;3.70;99.90;;;;;;4985769;28;20026;-74
2022/11/28 00:51:25;;;;;;;2.60;2.50;;;3.70;99.90;;;;;;4986331;28;20030;-76
2022/11/28 00:53:53;;;;;;;11.73;10.93;;;3.70;99.90;;;;;;4985188;28;20311;-75
2022/11/28 00:56:24;;;;;;;1.23;1.13;;;3.70;99.90;;;;;;4982736;28;20212;-75
2022/11/28 00:58:50;;;;;;;0.10;0.10;;;3.70;99.90;;;;;;4982487;28;20049;-75
2022/11/28 01:01:34;;;;;;;0.10;0.10;;;3.60;99.90;;;;;;4981638;28;20474;-75
2022/11/28 01:04:03;;;;;;;0.00;0.00;;;3.50;99.90;;;;;;4969110;28;20041;-75
2022/11/28 01:06:35;;;;;;;0.30;0.30;;;3.50;99.90;;;;;;4981734;28;20038;-75
2022/11/28 01:09:04;;;;;;;0.20;0.20;;;3.50;99.90;;;;;;4948097;28;20034;-75
2022/11/28 01:11:30;;;;;;;0.10;0.10;;;3.60;99.90;;;;;;4981289;28;20093;-75
2022/11/28 01:13:59;;;;;;;1.98;1.95;;;3.60;99.90;;;;;;4981270;28;20324;-75
2022/11/28 01:16:25;;;;;;;0.08;0.08;;;3.60;99.90;;;;;;4981121;28;20022;-75
2022/11/28 01:18:52;;;;;;;0.70;0.70;;;;;;;;;;4981266;28;20046;-74
2022/11/28 01:21:18;;;;;;;8.20;7.90;;;3.50;99.90;;;;;;4981273;28;20102;-75
2022/11/28 01:23:43;;;;;;;19.10;18.13;;;3.50;99.90;;;;;;4980938;28;20105;-74
2022/11/28 01:26:14;;;;;;;0.00;0.00;;;3.40;99.90;;;;;;4985381;28;20054;-75
2022/11/28 01:28:40;;;;;;;0.00;0.00;;;3.40;99.90;;;;;;4981696;28;20065;-75
2022/11/28 01:31:08;;;;;;;1.50;1.45;;;3.30;99.90;;;;;;4980841;28;20461;-75
2022/11/28 01:33:34;;;;;;;0.10;0.10;;;3.50;99.90;;;;;;4984884;28;20336;-75
2022/11/28 01:36:00;;;;;;;0.10;0.10;;;3.60;99.90;;;;;;4980999;28;20552;-75
2022/11/28 01:38:27;;;;;;;0.10;0.10;;;3.50;99.90;;;;;;4979996;28;20027;-75
2022/11/28 01:40:55;;;;;;;0.10;0.10;;;3.50;99.90;;;;;;4980680;28;20026;-75
2022/11/28 01:43:22;;;;;;;0.10;0.10;;;3.50;99.90;;;;;;4980553;28;20375;-75
2022/11/28 01:45:48;;;;;;;2.58;2.53;;;;;;;;;;4979990;28;20026;-74
2022/11/28 01:48:19;;;;;;;0.10;0.10;;;3.50;99.90;;;;;;4982010;28;20054;-75
2022/11/28 01:50:48;;;;;;;0.10;0.10;;;3.50;99.90;;;;;;4964838;28;20022;-75
2022/11/28 01:53:16;;;;;;;0.10;0.10;;;3.60;99.90;;;;;;4980530;28;20050;-75
2022/11/28 01:55:50;;;;;;;0.10;0.10;;;3.60;99.90;;;;;;4982664;28;20030;-75
2022/11/28 01:58:16;;;;;;;0.10;0.10;;;3.70;99.90;;;;;;4980697;28;20038;-75
2022/11/28 02:00:42;;;;;;;0.00;0.00;;;3.70;99.90;;;;;;4980870;28;20065;-75
2022/11/28 02:03:14;;;;;;;0.10;0.10;;;3.70;99.90;;;;;;4963290;28;20026;-75
2022/11/28 02:05:40;;;;;;;0.05;0.05;;;2.60;99.90;;;;;;4980674;28;20229;-75
2022/11/28 02:08:08;;;;;;;11.15;10.70;;;3.70;99.90;;;;;;4980873;28;20054;-75
2022/11/28 02:10:49;;;;;;;6.25;5.97;;;4.10;99.90;;;;;;4982007;28;20374;-75
2022/11/28 02:13:55;;;;;;;0.10;0.10;;;3.70;99.90;;;;;;4988363;28;20441;-75
2022/11/28 02:16:47;;;;;;;0.10;0.10;;;3.70;99.90;;;;;;4963812;28;20018;-75
2022/11/28 02:19:46;;;;;;;1.77;1.75;;;3.70;99.90;;;;;;4983348;28;20050;-75
2022/11/28 02:22:27;;;;;;;0.00;0.00;;;3.80;99.90;;;;;;4882132;29;20342;-75
2022/11/28 02:25:01;;;;;;;0.00;0.00;;;3.80;99.90;;;;;;4882044;29;20279;-75
2022/11/28 02:27:37;;;;;;;0.10;0.10;;;2.90;99.90;;;;;;4881727;29;20555;-74
2022/11/28 02:30:39;;;;;;;0.38;0.38;;;3.70;99.90;;;;;;4886110;29;20072;-75
2022/11/28 02:33:13;;;;;;;0.15;0.15;;;3.70;99.90;;;;;;4871575;29;20045;-75
2022/11/28 02:35:54;;;;;;;;;;;3.70;99.90;;;;;;4882350;29;20271;-75
2022/11/28 02:38:32;;;;;;;0.10;0.10;;;3.70;99.90;;;;;;4882745;29;20458;-75
2022/11/28 02:41:31;;;;;;;0.30;0.30;;;3.80;99.90;;;;;;4881637;29;20036;-75
2022/11/28 02:44:17;;;;;;;0.10;0.10;;;3.80;99.90;;;;;;4876639;29;20504;-75
2022/11/28 02:47:12;;;;;;;8.55;8.05;;;3.80;99.90;;;;;;4881079;29;20028;-75
2022/11/28 02:49:53;;;;;;;23.23;21.27;;;3.70;99.90;;;;;;4868955;29;20048;-74
2022/11/28 02:52:39;;;;;;;4.50;4.30;;;3.80;99.90;;;;;;4881584;29;20567;-75
2022/11/28 02:55:07;;;;;;;25.40;24.02;;;3.80;99.90;;;;;;4881490;29;20045;-75
2022/11/28 02:57:53;;;;;;;0.10;0.10;;;3.80;99.90;;;;;;4902192;28;20042;-75
2022/11/28 03:00:29;;;;;;;0.00;0.00;;;3.90;99.90;;;;;;4979849;28;20029;-75
2022/11/28 03:03:18;;;;;;;0.15;0.15;;;3.80;99.90;;;;;;4979714;28;20034;-75
2022/11/28 03:05:54;;;;;;;0.10;0.10;;;3.80;99.90;;;;;;4982554;28;20042;-75
2022/11/28 03:08:35;;;;;;;0.10;0.10;;;3.80;99.90;;;;;;4967023;28;20437;-75
2022/11/28 03:11:13;;;;;;;0.15;0.15;;;3.90;99.90;;;;;;4987843;28;20031;-75
2022/11/28 03:13:48;;;;;;;32.03;29.73;;;3.80;99.90;;;;;;4966675;28;20695;-75
2022/11/28 03:16:21;;;;;;;0.10;0.10;;;3.90;99.90;;;;;;4984079;28;20536;-75
2022/11/28 03:19:10;;;;;;;1.48;1.45;;;3.80;99.90;;;;;;4983790;28;20255;-75
2022/11/28 03:21:42;;;;;;;0.00;0.00;;;3.90;99.90;;;;;;4966355;28;20695;-74
2022/11/28 03:24:24;;;;;;;0.10;0.10;;;3.90;99.90;;;;;;4985265;28;20323;-75
2022/11/28 03:26:59;;;;;;;0.10;0.10;;;3.90;99.90;;;;;;4983747;28;20320;-75
2022/11/28 03:29:38;;;;;;;0.10;0.10;;;3.70;99.90;;;;;;4988878;28;20521;-75
2022/11/28 03:32:12;;;;;;;2.78;2.67;;;3.90;99.90;;;;;;4983794;28;20101;-75
2022/11/28 03:34:40;;;;;;;;;;;3.80;99.90;;;;;;4984256;28;20312;-75
2022/11/28 03:37:30;;;;;;;0.00;0.00;;;3.80;99.90;;;;;;4984188;28;20099;-74
2022/11/28 03:40:03;;;;;;;0.20;0.20;;;3.90;99.90;;;;;;4982528;28;20023;-75
2022/11/28 03:42:33;;;;;;;0.10;0.10;;;3.90;99.90;;;;;;4969066;28;20156;-75
2022/11/28 03:45:18;;;;;;;0.00;0.00;;;3.90;99.90;;;;;;4987962;28;20022;-75
2022/11/28 03:47:48;;;;;;;0.00;0.00;;;3.90;99.90;;;;;;4988086;28;20177;-75
2022/11/28 03:50:20;;;;;;;0.10;0.10;;;3.90;99.90;;;;;;4993152;28;20239;-75
2022/11/28 03:52:58;;;;;;;0.28;0.28;;;3.80;99.90;;;;;;4992674;28;20025;-75
2022/11/28 03:55:50;;;;;;;9.50;8.88;;;3.90;99.90;;;;;;4974831;28;20480;-75
2022/11/28 03:58:16;;;;;;;0.10;0.10;;;;;;;;;;4983658;28;20282;-75
2022/11/28 04:01:00;;;;;;;0.10;0.10;;;3.70;99.90;;;;;;4965342;28;20026;-75
2022/11/28 04:03:41;;;;;;;0.10;0.10;;;3.60;99.90;;;;;;4983413;28;20025;-75
2022/11/28 04:06:16;;;;;;;4.20;4.05;;;3.70;99.90;;;;;;4982715;28;20240;-75
2022/11/28 04:08:59;;;;;;;0.00;0.00;;;3.70;99.90;;;;;;4982251;28;20038;-75
2022/11/28 04:11:32;;;;;;;6.15;5.80;;;3.70;99.90;;;;;;4964792;28;20030;-75
2022/11/28 04:14:13;;;;;;;12.55;11.85;;;3.60;99.90;;;;;;4985480;28;20327;-74
2022/11/28 04:16:39;;;;;;;0.77;0.77;;;4.40;99.90;;;;;;4982032;28;20108;-74
2022/11/28 04:19:07;;;;;;;1.60;1.50;;;3.70;99.90;;;;;;4982110;28;20748;-75
2022/11/28 04:22:02;;;;;;;0.03;0.03;;;3.70;99.90;;;;;;4982355;28;20096;-75
2022/11/28 04:24:44;;;;;;;0.10;0.10;;;3.70;99.90;;;;;;4981812;28;20026;-75
2022/11/28 04:27:16;;;;;;;0.43;0.43;;;3.70;99.90;;;;;;4985791;28;20184;-76
2022/11/28 04:29:51;;;;;;;0.10;0.10;;;3.80;99.90;;;;;;4981705;28;20101;-75
2022/11/28 04:32:19;;;;;;;0.10;0.10;;;3.80;99.90;;;;;;4983494;28;20077;-75
2022/11/28 04:34:51;;;;;;;0.03;0.03;;;3.80;99.90;;;;;;4984593;28;20038;-74
2022/11/28 04:37:18;;;;;;;0.20;0.20;;;3.70;99.90;;;;;;4982836;28;20069;-75
2022/11/28 04:39:47;;;;;;;0.10;0.10;;;3.70;99.90;;;;;;4983312;28;20018;-75
2022/11/28 04:42:44;;;;;;;0.10;0.10;;;3.70;99.90;;;;;;4982091;28;20018;-75
2022/11/28 04:45:42;;;;;;;0.10;0.10;;;3.70;99.90;;;;;;4926520;29;20047;-74
2022/11/28 04:48:08;;;;;;;0.10;0.10;;;3.70;99.90;;;;;;4846180;29;20397;-75
2022/11/28 04:50:48;;;;;;;0.00;0.00;;;3.70;99.90;;;;;;4846938;29;20533;-75
2022/11/28 04:53:31;;;;;;;0.00;0.00;;;3.70;99.90;;;;;;4846755;29;20052;-75
2022/11/28 04:56:02;;;;;;;0.00;0.00;;;3.80;99.90;;;;;;4846771;29;20049;-75
2022/11/28 04:58:35;;;;;;;8.00;3.40;;;4.00;99.90;;;;;;4846162;29;20068;-75
2022/11/28 05:01:05;;;;;;;0.10;0.10;;;3.70;99.90;;;;;;4849049;29;20044;-75
2022/11/28 05:03:31;;;;;;;0.20;0.20;;;;;;;;;;4846855;29;20037;-75
2022/11/28 05:05:57;;;;;;;0.10;0.10;;;;;;;;;;4845547;29;20041;-75
2022/11/28 05:08:24;;;;;;;0.30;0.30;;;3.70;99.90;;;;;;4846191;29;20517;-75
2022/11/28 05:10:50;;;;;;;7.13;6.82;;;3.70;99.90;;;;;;4845840;29;20296;-75
2022/11/28 05:13:16;;;;;;;0.00;0.00;;;3.70;99.90;;;;;;4845907;29;20340;-74
2022/11/28 05:15:41;;;;;;;0.10;0.10;;;3.70;99.90;;;;;;4845702;29;20049;-75
2022/11/28 05:18:08;;;;;;;0.00;0.00;;;4.10;99.90;;;;;;4846023;29;20685;-75
2022/11/28 05:20:35;;;;;;;0.15;0.15;;;3.70;99.90;;;;;;4847803;29;20120;-75
2022/11/28 05:23:00;;;;;;;0.70;0.70;;;3.70;99.90;;;;;;4882574;29;20326;-75
2022/11/28 05:25:26;;;;;;;5.68;5.30;;;3.70;99.90;;;;;;4937047;28;20517;-76
2022/11/28 05:27:52;;;;;;;2.17;2.08;;;3.70;99.90;;;;;;4980658;28;20469;-75
2022/11/28 05:30:18;;;;;;;0.20;0.20;;;3.70;99.90;;;;;;4981114;28;20018;-74
2022/11/28 05:32:44;;;;;;;3.70;3.60;;;;;;;;;;4980940;28;20315;-75
2022/11/28 05:35:09;;;;;;;0.10;0.10;;;3.70;99.90;;;;;;4964066;28;20243;-75
2022/11/28 05:37:36;;;;;;;1.17;1.17;;;3.70;99.90;;;;;;4980049;28;20406;-75
2022/11/28 05:40:02;;;;;;;4.43;4.22;;;3.80;99.90;;;;;;4980695;28;20026;-75
2022/11/28 05:42:32;;;;;;;0.13;0.13;;;3.80;99.90;;;;;;4980365;28;20029;-76
2022/11/28 05:44:58;;;;;;;9.02;8.50;;;3.60;99.90;;;;;;4980696;28;20042;-74
2022/11/28 05:47:24;;;;;;;0.10;0.10;;;3.80;99.90;;;;;;4980212;28;20071;-75
2022/11/28 05:49:49;;;;;;;1.33;1.33;;;3.80;99.90;;;;;;4980009;28;20034;-75
2022/11/28 05:52:15;;;;;;;3.10;2.90;;;3.80;99.90;;;;;;4980582;28;20026;-74
2022/11/28 05:54:41;;;;;;;22.88;20.90;;;3.80;99.90;;;;;;4966229;28;20050;-75
2022/11/28 05:57:07;;;;;;;18.95;17.65;;;3.80;99.90;;;;;;4982060;28;20029;-75
2022/11/28 05:59:33;;;;;;;1.85;1.75;;;3.80;99.90;;;;;;4981620;28;20532;-75
2022/11/28 06:01:59;;;;;;;0.55;0.55;;;3.80;99.90;;;;;;4964114;28;20548;-75
2022/11/28 06:04:25;;;;;;;0.00;0.00;;;3.90;99.90;;;;;;4980708;28;20083;-74
2022/11/28 06:06:51;;;;;;;0.32;0.32;;;3.80;99.90;;;;;;4981208;28;20046;-75
2022/11/28 06:09:16;;;;;;;0.38;0.38;;;3.90;99.90;;;;;;4981278;28;20085;-75
2022/11/28 06:11:47;;;;;;;0.10;0.10;;;3.90;99.90;;;;;;4980181;28;20252;-75
2022/11/28 06:14:13;;;;;;;1.55;1.45;;;3.60;99.90;;;;;;4979689;28;20118;-75
2022/11/28 06:16:41;;;;;;;1.35;1.30;;;3.90;99.90;;;;;;4979799;28;20168;-75
2022/11/28 06:19:10;;;;;;;0.10;0.10;;;4.00;99.90;;;;;;4980126;28;20022;-75
2022/11/28 06:21:36;;;;;;;0.10;0.10;;;;;;;;;;4980146;28;20023;-75
2022/11/28 06:24:01;;;;;;;0.10;0.10;;;3.20;99.90;;;;;;4980327;28;20235;-75
2022/11/28 06:26:28;;;;;;;4.70;4.50;;;4.00;99.90;;;;;;4980613;28;20212;-75
2022/11/28 06:28:54;;;;;;;2.05;1.95;;;4.00;99.90;;;;;;4980622;28;20076;-75
2022/11/28 06:31:22;;;;;;;8.45;8.07;;;3.90;99.90;;;;;;4981359;28;20022;-75
2022/11/28 06:33:48;;;;;;;0.10;0.10;;;3.90;99.90;;;;;;4962645;28;20070;-75
2022/11/28 06:36:16;;;;;;;0.10;0.10;;;4.10;99.90;;;;;;4980140;28;20256;-74
2022/11/28 06:38:42;;;;;;;14.05;11.95;;;4.00;99.90;;;;;;4981882;28;20425;-75
2022/11/28 06:41:11;;;;;;;0.10;0.10;;;4.00;99.90;;;;;;4984135;28;20557;-75
2022/11/28 06:43:37;;;;;;;0.10;0.10;;;4.00;99.90;;;;;;4984228;28;20073;-75
2022/11/28 06:46:03;;;;;;;0.00;0.00;;;4.30;99.90;;;;;;4984107;28;20236;-75
2022/11/28 06:48:29;;;;;;;4.60;4.40;;;4.10;99.90;;;;;;4984098;28;20718;-75
2022/11/28 06:51:02;;;;;;;0.10;0.10;;;4.00;99.90;;;;;;4983634;28;20088;-75
2022/11/28 06:53:28;;;;;;;1.88;1.88;;;4.20;99.90;;;;;;4984138;28;20105;-75
2022/11/28 06:55:54;;;;;;;0.10;0.10;;;4.20;99.90;;;;;;4966549;28;20121;-75
2022/11/28 06:58:19;;;;;;;0.10;0.10;;;4.30;99.90;;;;;;4987751;28;20038;-75
2022/11/28 07:00:45;;;;;;;0.10;0.10;;;4.40;99.90;;;;;;4994091;28;20654;-75
2022/11/28 07:03:12;;;;;;;0.10;0.10;;;5.00;99.90;;;;;;4994372;28;20019;-75
2022/11/28 07:05:38;;;;;;;0.20;0.20;;;4.50;99.90;;;;;;4993082;28;20094;-75
2022/11/28 07:08:04;;;;;;;11.57;10.98;;;4.80;99.90;;;;;;4991212;28;20030;-75
2022/11/28 07:10:30;;;;;;;0.10;0.10;;;4.60;99.90;;;;;;4987228;28;20026;-75
2022/11/28 07:12:58;;;;;;;0.10;0.10;;;4.80;99.90;;;;;;4986672;28;20050;-75
2022/11/28 07:15:24;;;;;;;0.20;0.20;;;4.70;99.90;;;;;;4992137;28;20026;-76
2022/11/28 07:17:51;;;;;;;0.10;0.10;;;4.80;99.90;;;;;;4994412;28;20300;-75
2022/11/28 07:20:18;;;;;;;0.10;0.10;;;;;;;;;;4988546;28;20026;-75
2022/11/28 07:22:46;;;;;;;0.10;0.10;;;4.70;99.90;;;;;;4985452;28;20019;-75
2022/11/28 07:25:13;;;;;;;0.03;0.03;;;4.70;99.90;;;;;;4966058;28;20018;-74
2022/11/28 07:27:40;;;;;;;0.10;0.10;;;4.70;99.90;;;;;;4982782;28;20018;-75
2022/11/28 07:30:07;;;;;;;0.00;0.00;;;4.70;99.90;;;;;;4982978;28;20022;-74
2022/11/28 07:32:33;;;;;;;0.00;0.00;;;4.60;99.90;;;;;;4982156;28;20022;-74
2022/11/28 07:34:59;;;;;;;0.15;0.15;;;4.60;99.90;;;;;;4965296;28;20084;-74
2022/11/28 07:37:25;;;;;;;0.03;0.03;;;4.30;99.90;;;;;;4982334;28;20034;-75
2022/11/28 07:39:50;;;;;;;0.00;0.00;;;4.50;99.90;;;;;;4982938;28;20603;-75
2022/11/28 07:42:16;;;;;;;0.08;0.08;;;4.50;99.90;;;;;;4982408;28;20082;-75
2022/11/28 07:44:42;;;;;;;0.10;0.10;;;4.50;99.90;;;;;;4982378;28;20030;-75
2022/11/28 07:47:12;;;;;;;0.00;0.00;;;4.50;99.90;;;;;;4982716;28;20030;-75
2022/11/28 07:49:38;;;;;;;0.00;0.00;;;6.90;99.90;;;;;;4984785;28;20049;-75
2022/11/28 07:52:04;;;;;;;0.10;0.10;;;4.70;99.90;;;;;;4981603;28;20631;-75
2022/11/28 07:54:30;;;;;;;0.00;0.00;;;4.80;99.90;;;;;;4982226;28;20031;-75
2022/11/28 07:56:55;;;;;;;0.10;0.10;;;4.90;99.90;;;;;;4981688;28;20018;-75
2022/11/28 07:59:21;;;;;;;0.10;0.10;;;5.00;99.90;;;;;;4982440;28;20130;-75
2022/11/28 08:01:47;;;;;;;2.15;2.05;;;5.10;99.90;;;;;;4986896;28;20010;-74
2022/11/28 08:04:13;;;;;;;0.10;0.10;;;5.20;99.90;;;;;;4981866;28;20057;-75
2022/11/28 08:06:40;;;;;;;0.08;0.08;;;5.30;99.90;;;;;;4984255;28;20050;-76
2022/11/28 08:09:07;;;;;;;0.10;0.10;;;5.30;99.90;;;;;;4981708;28;20037;-75
2022/11/28 08:11:34;;;;;;;0.10;0.10;;;5.30;99.90;;;;;;4982030;28;20592;-74
2022/11/28 08:14:00;;;;;;;1.00;1.00;;;5.30;99.90;;;;;;4982325;28;20126;-75
2022/11/28 08:16:28;;;;;;;0.10;0.10;;;5.30;99.90;;;;;;4981684;28;20057;-75
2022/11/28 08:18:55;;;;;;;0.10;0.10;;;5.30;99.90;;;;;;4981227;28;20022;-75
2022/11/28 08:21:26;;;;;;;0.00;0.00;;;5.60;99.90;;;;;;4982109;28;20057;-74
2022/11/28 08:23:53;;;;;;;0.10;0.10;;;5.40;99.90;;;;;;4981303;28;20022;-74
2022/11/28 08:26:24;;;;;;;0.00;0.00;;;5.40;99.90;;;;;;4963825;28;20022;-75
2022/11/28 08:28:52;;;;;;;0.10;0.10;;;5.40;99.90;;;;;;4981272;28;20424;-75
2022/11/28 08:31:24;;;;;;;0.10;0.10;;;5.50;99.90;;;;;;4981620;28;20113;-75
2022/11/28 08:33:54;;;;;;;0.10;0.10;;;5.70;99.90;;;;;;4982607;28;20034;-75
2022/11/28 08:36:20;;;;;;;0.10;0.10;;;5.80;99.90;;;;;;4983273;28;20014;-75
2022/11/28 08:38:48;;;;;;;0.10;0.10;;;5.90;99.90;;;;;;4981806;28;20035;-75
2022/11/28 08:41:17;;;;;;;0.10;0.10;;;5.90;99.90;;;;;;4981094;28;20073;-75
2022/11/28 08:43:43;;;;;;;0.10;0.10;;;6.00;99.90;;;;;;4981325;28;20746;-75
2022/11/28 08:46:11;;;;;;;3.08;2.65;;;6.20;99.90;;;;;;4981177;28;20046;-75
2022/11/28 08:48:38;;;;;;;0.10;0.10;;;6.30;99.90;;;;;;4981485;28;20019;-74
2022/11/28 08:51:05;;;;;;;0.00;0.00;;;6.30;99.90;;;;;;4982348;28;20505;-75
2022/11/28 08:53:31;;;;;;;0.10;0.10;;;6.00;99.90;;;;;;4983281;28;20129;-75
2022/11/28 08:55:57;;;;;;;0.10;0.10;;;;;;;;;;4980519;28;20722;-75
2022/11/28 08:58:23;;;;;;;0.10;0.10;;;;;;;;;;4963521;28;20117;-75
2022/11/28 09:00:49;;;;;;;0.10;0.10;;;;;;;;;;4981638;28;20023;-75
2022/11/28 09:03:17;;;;;;;0.10;0.10;;;6.80;99.90;;;;;;4986109;28;20037;-75
2022/11/28 09:05:45;;;;;;;0.20;0.20;;;7.10;99.90;;;;;;4982083;28;20092;-74
2022/11/28 09:08:15;;;;;;;0.10;0.10;;;7.00;99.90;;;;;;4982312;28;20082;-75
2022/11/28 09:10:42;;;;;;;0.20;0.20;;;7.40;99.90;;;;;;4986166;28;20029;-76
2022/11/28 09:13:09;;;;;;;2.60;2.47;;;9.10;99.90;;;;;;4981922;28;20116;-75
2022/11/28 09:15:39;;;;;;;0.20;0.20;;;7.20;99.90;;;;;;4985991;28;20102;-74
2022/11/28 09:18:05;;;;;;;0.10;0.10;;;7.10;99.90;;;;;;4984036;28;20049;-74
2022/11/28 09:20:31;;;;;;;0.20;0.20;;;7.00;99.90;;;;;;4982061;28;20688;-75
2022/11/28 09:22:58;;;;;;;0.73;0.73;;;7.00;99.90;;;;;;4985231;28;20030;-74
2022/11/28 09:25:23;;;;;;;0.20;0.20;;;7.00;99.90;;;;;;4981037;28;20020;-75
2022/11/28 09:27:49;;;;;;;0.20;0.20;;;7.00;99.90;;;;;;4981116;28;20370;-75
2022/11/28 09:30:15;;;;;;;0.10;0.10;;;7.20;99.90;;;;;;4983670;28;20033;-75
2022/11/28 09:32:41;;;;;;;0.50;0.50;;;6.90;99.90;;;;;;4963747;28;20223;-75
2022/11/28 09:35:07;;;;;;;1.27;1.27;;;7.00;99.90;;;;;;4981067;28;20065;-75
2022/11/28 09:37:33;;;;;;;0.20;0.20;;;6.60;99.90;;;;;;4964211;28;20030;-75
2022/11/28 09:39:59;;;;;;;0.30;0.30;;;6.80;99.90;;;;;;4979701;28;20030;-75
2022/11/28 09:42:30;;;;;;;0.10;0.10;;;7.00;99.90;;;;;;4979578;28;20026;-75
2022/11/28 09:45:06;;;;;;;0.20;0.20;;;7.20;99.90;;;;;;4979911;28;20057;-75
2022/11/28 09:47:35;;;;;;;0.20;0.20;;;7.20;99.90;;;;;;4962450;28;20025;-75
2022/11/28 09:50:15;;;;;;;0.20;0.20;;;7.40;99.90;;;;;;4980565;28;20029;-75
2022/11/28 09:52:59;;;;;;;0.20;0.20;;;7.20;99.90;;;;;;4981012;28;20023;-75
2022/11/28 09:55:42;;;;;;;0.20;0.20;;;7.30;99.90;;;;;;4979622;28;20029;-75
2022/11/28 09:58:20;;;;;;;0.20;0.20;;;7.50;99.90;;;;;;4980555;28;20018;-75
2022/11/28 10:01:14;;;;;;;0.20;0.20;;;7.50;99.90;;;;;;4981738;28;20079;-75
2022/11/28 10:03:51;;;;;;;0.10;0.10;;;8.50;99.90;;;;;;4983198;28;20166;-75
2022/11/28 10:06:49;;;;;;;0.13;0.13;;;7.30;99.90;;;;;;4982698;28;20236;-76
2022/11/28 10:09:50;;;;;;;0.20;0.20;;;7.30;99.90;;;;;;4965561;28;20038;-75
2022/11/28 10:12:40;;;;;;;0.10;0.10;;;7.20;99.90;;;;;;4993254;28;20030;-75
2022/11/28 10:15:18;;;;;;;0.20;0.20;;;6.90;99.90;;;;;;4989317;28;20600;-76
2022/11/28 10:18:06;;;;;;;0.10;0.10;;;6.90;99.90;;;;;;4988459;28;20282;-74
2022/11/28 10:20:38;;;;;;;0.13;0.13;;;7.10;99.90;;;;;;4989199;28;20057;-75
2022/11/28 10:23:05;;;;;;;0.20;0.20;;;7.00;99.90;;;;;;4984920;28;20054;-76
2022/11/28 10:25:49;;;;;;;0.20;0.20;;;7.20;99.90;;;;;;4969499;28;20244;-76
2022/11/28 10:28:33;;;;;;;0.17;0.17;;;7.10;99.90;;;;;;4990561;28;20482;-75
2022/11/28 10:31:27;;;;;;;0.20;0.20;;;7.10;99.90;;;;;;4987184;28;20045;-76
2022/11/28 10:34:22;;;;;;;0.17;0.17;;;7.20;99.90;;;;;;4981118;28;20038;-75
2022/11/28 10:37:10;;;;;;;0.15;0.15;;;7.20;99.90;;;;;;4882522;29;20567;-75
2022/11/28 10:39:40;;;;;;;0.40;0.40;;;7.10;99.90;;;;;;4881094;29;20127;-75
2022/11/28 10:42:27;;;;;;;0.20;0.20;;;7.10;99.90;;;;;;4881507;29;20710;-75
2022/11/28 10:45:12;;;;;;;0.10;0.10;;;7.40;99.90;;;;;;4881324;29;20028;-75
2022/11/28 10:48:06;;;;;;;0.10;0.10;;;7.50;99.90;;;;;;4881492;29;20061;-75
2022/11/28 10:50:52;;;;;;;41.00;37.45;;;7.50;99.90;;;;;;4867668;29;20021;-75
2022/11/28 10:53:37;;;;;;;0.20;0.20;;;7.30;99.90;;;;;;4881895;29;20146;-75
2022/11/28 10:56:14;;;;;;;0.17;0.17;;;7.20;99.90;;;;;;4881362;29;20124;-75
2022/11/28 10:58:51;;;;;;;0.10;0.10;;;7.30;99.90;;;;;;4880782;29;20059;-74
2022/11/28 11:01:18;;;;;;;0.20;0.20;;;7.30;99.90;;;;;;4881394;29;20029;-75
2022/11/28 11:03:44;;;;;;;0.65;0.65;;;7.50;99.90;;;;;;4881736;29;20037;-75
2022/11/28 11:06:10;;;;;;;0.20;0.20;;;7.60;99.90;;;;;;4881448;29;20055;-74
2022/11/28 11:08:38;;;;;;;0.20;0.20;;;7.50;99.90;;;;;;4881421;29;20036;-75
2022/11/28 11:11:18;;;;;;;0.10;0.10;;;7.60;99.90;;;;;;4881826;29;20040;-75
2022/11/28 11:13:58;;;;;;;0.13;0.13;;;9.60;99.90;;;;;;4928072;28;20122;-75
2022/11/28 11:16:23;;;;;;;0.20;0.20;;;7.60;99.90;;;;;;4979077;28;20096;-75
2022/11/28 11:18:53;;;;;;;0.20;0.20;;;7.70;99.90;;;;;;4978991;28;20030;-75
2022/11/28 11:21:22;;;;;;;0.20;0.20;;;7.70;99.90;;;;;;4978964;28;20030;-75
2022/11/28 11:23:49;;;;;;;0.10;0.10;;;7.80;99.90;;;;;;4980336;28;20146;-75
2022/11/28 11:26:28;;;;;;;0.22;0.22;;;7.90;99.90;;;;;;4983211;28;20030;-74
2022/11/28 11:28:55;;;;;;;0.20;0.20;;;8.10;99.90;;;;;;4986338;28;20030;-75
2022/11/28 11:31:26;;;;;;;0.20;0.20;;;8.10;99.90;;;;;;4985727;28;20037;-75
2022/11/28 11:34:02;;;;;;;0.20;0.20;;;8.20;99.90;;;;;;4984094;28;20114;-75
2022/11/28 11:36:31;;;;;;;0.10;0.10;;;8.20;99.90;;;;;;4984377;28;20046;-75
2022/11/28 11:39:09;;;;;;;0.13;0.13;;;8.00;99.90;;;;;;4987575;28;20089;-76
2022/11/28 11:41:40;;;;;;;0.20;0.20;;;7.80;99.70;;;;;;4984068;28;20018;-76
2022/11/28 11:44:15;;;;;;;0.10;0.10;;;8.00;99.50;;;;;;4987019;28;20504;-76
2022/11/28 11:47:02;;;;;;;0.20;0.20;;;7.90;99.60;;;;;;4987123;28;20584;-75
2022/11/28 11:49:48;;;;;;;0.20;0.20;;;8.00;99.90;;;;;;4988635;28;20030;-76
2022/11/28 11:52:19;;;;;;;0.20;0.20;;;8.10;99.90;;;;;;4985625;28;20069;-75
2022/11/28 11:54:57;;;;;;;0.20;0.20;;;8.10;99.40;;;;;;4967688;28;20042;-75
2022/11/28 11:57:46;;;;;;;0.13;0.13;;;8.20;99.90;;;;;;4984712;28;20037;-75
2022/11/28 12:00:12;;;;;;;0.10;0.10;;;8.10;99.30;;;;;;4967476;28;20029;-75
2022/11/28 12:03:03;;;;;;;0.20;0.20;;;8.10;99.90;;;;;;4982840;28;20034;-74
2022/11/28 12:05:38;;;;;;;0.20;0.20;;;8.20;99.70;;;;;;4998971;28;20084;-76
2022/11/28 12:08:11;;;;;;;0.20;0.20;;;8.20;98.60;;;;;;5003141;28;20488;-74
2022/11/28 12:10:45;;;;;;;0.20;0.20;;;8.30;99.10;;;;;;4996861;28;20729;-75
2022/11/28 12:13:22;;;;;;;0.98;0.98;;;8.20;99.60;;;;;;4979784;28;20030;-75
2022/11/28 12:16:17;;;;;;;0.20;0.20;;;8.30;98.70;;;;;;4996862;28;20700;-74
2022/11/28 12:19:30;;;;;;;0.10;0.10;;;8.40;98.60;;;;;;4992242;28;20535;-75
2022/11/28 12:21:58;;;;;;;0.20;0.20;;;8.30;98.80;;;;;;4980434;28;20037;-75
2022/11/28 12:24:47;;;;;;;0.20;0.20;;;8.20;98.70;;;;;;4981691;28;20030;-75
2022/11/28 12:27:32;;;;;;;0.10;0.10;;;8.20;98.70;;;;;;4886846;29;20153;-74
2022/11/28 12:30:32;;;;;;;0.10;0.10;;;8.30;98.90;;;;;;4888249;29;20450;-74
2022/11/28 12:32:58;;;;;;;0.10;0.10;;;;;;;;;;4883488;29;20116;-76
2022/11/28 12:35:38;;;;;;;0.20;0.20;;;8.20;98.60;;;;;;4883719;29;20096;-75
2022/11/28 12:38:31;;;;;;;0.98;0.98;;;8.10;99.10;;;;;;4882721;29;20053;-75
2022/11/28 12:41:18;;;;;;;3.70;3.60;;;8.10;99.80;;;;;;4872245;29;20028;-74
2022/11/28 12:44:15;;;;;;;0.10;0.10;;;8.00;99.40;;;;;;4890715;29;20729;-75
2022/11/28 12:46:53;;;;;;;0.25;0.25;;;8.30;99.70;;;;;;4885286;29;20032;-74
2022/11/28 12:49:22;;;;;;;0.20;0.20;;;8.00;99.30;;;;;;4868880;29;20127;-74
2022/11/28 12:52:00;;;;;;;0.20;0.20;;;8.10;99.80;;;;;;4882825;29;20024;-74
2022/11/28 12:55:03;;;;;;;0.20;0.20;;;8.10;98.90;;;;;;4883615;29;20047;-75
2022/11/28 12:58:09;;;;;;;0.40;0.40;;;7.90;99.90;;;;;;4882655;29;20044;-75
2022/11/28 13:00:49;;;;;;;1.17;1.17;;;9.00;98.40;;;;;;4887831;29;20032;-75
2022/11/28 13:03:57;;;;;;;0.10;0.10;;;8.80;97.90;;;;;;4872618;28;20029;-74
2022/11/28 13:06:47;;;;;;;5.57;5.10;;;8.40;98.00;;;;;;4981274;28;20030;-74
2022/11/28 13:09:28;;;;;;;0.25;0.25;;;8.10;98.90;;;;;;4981066;28;20101;-75
2022/11/28 13:12:05;;;;;;;0.20;0.20;;;8.10;99.00;;;;;;4982119;28;20054;-74
2022/11/28 13:15:03;;;;;;;0.20;0.20;;;7.90;99.40;;;;;;4981114;28;20122;-75
2022/11/28 13:18:01;;;;;;;0.20;0.20;;;7.80;99.40;;;;;;4963439;28;20725;-74
2022/11/28 13:21:19;;;;;;;0.20;0.20;;;7.70;99.20;;;;;;4981410;28;20014;-73
2022/11/28 13:23:49;;;;;;;0.17;0.17;;;7.60;99.90;;;;;;4968969;28;20035;-75
2022/11/28 13:26:40;;;;;;;0.13;0.13;;;7.60;99.90;;;;;;4982186;28;20060;-74
2022/11/28 13:29:28;;;;;;;0.30;0.30;;;7.60;99.90;;;;;;4965243;28;20050;-75
2022/11/28 13:31:54;;;;;;;0.20;0.20;;;;;;;;;;4982729;28;20010;-74
2022/11/28 13:34:21;;;;;;;0.17;0.17;;;7.40;99.90;;;;;;4984583;28;20041;-76